Time;durP1;ratioP1;P1;durP2;ratioP2;P2;SDS_P1;SDS_P2;PMS_P1;PMS_P2;Temp;Humidity;BMP_temperature;BMP_pressure;BME280_temperature;BME280_humidity;BME280_pressure;Samples;Min_cycle;Max_cycle;Signal;HPM_P1;HPM_P2
2022/05/26 00:02:22;;;;;;;9.23;3.95;;;;;;;21.48;70.21;93363.34;4990394;28;20465;-81
2022/05/26 00:04:49;;;;;;;9.63;4.47;;;;;;;21.43;68.86;93358.16;4990324;28;20083;-80
2022/05/26 00:07:15;;;;;;;9.25;3.63;;;;;;;21.51;69.23;93372.47;4992948;28;20050;-80
2022/05/26 00:09:43;;;;;;;7.82;3.80;;;;;;;21.56;70.45;93372.44;4990870;28;20050;-82
2022/05/26 00:12:10;;;;;;;8.15;4.13;;;;;;;21.46;72.15;93367.28;4990363;28;20074;-80
2022/05/26 00:14:38;;;;;;;8.18;3.50;;;;;;;21.51;70.81;93377.72;4990001;28;20050;-80
2022/05/26 00:17:05;;;;;;;13.15;4.70;;;;;;;21.36;71.87;93370.78;4990423;28;20042;-80
2022/05/26 00:19:34;;;;;;;6.00;4.10;;;;;;;21.45;71.29;93379.59;4990586;28;20050;-81
2022/05/26 00:22:00;;;;;;;8.65;3.83;;;;;;;21.44;70.48;93379.88;4990720;28;20530;-78
2022/05/26 00:24:27;;;;;;;7.03;4.13;;;;;;;21.45;70.75;93376.19;4990335;28;20053;-78
2022/05/26 00:26:54;;;;;;;8.02;3.72;;;;;;;21.43;71.04;93373.84;4990147;28;20053;-78
2022/05/26 00:29:21;;;;;;;6.45;4.03;;;;;;;21.41;71.42;93370.72;4990515;28;20050;-78
2022/05/26 00:31:48;;;;;;;10.93;4.32;;;;;;;21.34;72.00;93360.59;4990105;28;21042;-81
2022/05/26 00:34:15;;;;;;;7.55;3.55;;;;;;;21.11;72.44;93335.97;4987247;28;20065;-81
2022/05/26 00:36:43;;;;;;;13.05;4.30;;;;;;;21.30;73.70;93362.19;4990002;28;20050;-81
2022/05/26 00:39:13;;;;;;;8.13;4.78;;;;;;;20.98;74.66;93326.91;4989897;28;20050;-81
2022/05/26 00:41:45;;;;;;;12.00;4.82;;;;;;;21.02;75.56;93351.41;4990085;28;20054;-80
2022/05/26 00:44:12;;;;;;;6.25;4.10;;;;;;;21.01;76.57;93365.50;4990146;28;20045;-80
2022/05/26 00:46:45;;;;;;;9.60;4.38;;;;;;;20.88;77.56;93368.75;4990024;28;20054;-80
2022/05/26 00:49:19;;;;;;;7.75;4.88;;;;;;;20.85;76.58;93366.63;4990480;28;20053;-80
2022/05/26 00:51:48;;;;;;;7.18;4.28;;;;;;;20.77;77.71;93366.16;4991458;28;20053;-79
2022/05/26 00:54:19;;;;;;;8.68;4.35;;;;;;;20.65;78.26;93363.84;4990127;28;20085;-80
2022/05/26 00:56:53;;;;;;;7.85;4.18;;;;;;;20.64;78.55;93382.41;4990160;28;20039;-80
2022/05/26 00:59:28;;;;;;;10.63;4.72;;;;;;;20.53;79.81;93371.22;4990708;28;20049;-79
2022/05/26 01:01:58;;;;;;;9.55;4.32;;;;;;;20.28;80.05;93355.41;4991012;28;20053;-79
2022/05/26 01:04:28;;;;;;;10.75;4.38;;;;;;;20.33;79.63;93369.47;4989868;28;20457;-80
2022/05/26 01:07:00;;;;;;;9.02;4.30;;;;;;;20.39;79.94;93386.69;4988368;28;20042;-78
2022/05/26 01:09:27;;;;;;;8.77;4.40;;;;;;;20.40;79.38;93385.63;4989575;28;20395;-79
2022/05/26 01:11:54;;;;;;;10.90;5.00;;;;;;;20.34;81.39;93386.69;4989389;28;20143;-78
2022/05/26 01:14:25;;;;;;;11.15;4.70;;;;;;;20.24;80.25;93380.47;4989520;28;20038;-79
2022/05/26 01:17:05;;;;;;;8.88;5.18;;;;;;;20.15;80.80;93371.63;4990411;28;20112;-79
2022/05/26 01:20:19;;;;;;;7.75;4.47;;;;;;;20.20;81.62;93394.28;4989746;28;20058;-79
2022/05/26 01:23:28;;;;;;;8.43;4.80;;;;;;;20.01;83.23;93397.47;4991105;28;20038;-80
2022/05/26 01:26:28;;;;;;;8.13;4.47;;;;;;;19.84;83.04;93377.66;4976294;28;20046;-79
2022/05/26 01:29:26;;;;;;;7.38;4.10;;;;;;;19.92;83.18;93399.81;4982311;28;20046;-79
2022/05/26 01:32:02;;;;;;;11.55;5.28;;;;;;;19.87;83.44;93390.16;4970540;28;20046;-80
2022/05/26 01:34:40;;;;;;;8.77;4.25;;;;;;;19.85;84.30;93384.44;4988886;28;20058;-79
2022/05/26 01:37:14;;;;;;;9.80;4.75;;;;;;;19.81;84.63;93385.22;4989761;28;20409;-79
2022/05/26 01:39:47;;;;;;;12.43;5.00;;;;;;;19.80;84.60;93394.09;4990670;28;20058;-78
2022/05/26 01:42:26;;;;;;;7.95;4.95;;;;;;;19.74;86.38;93398.53;4989136;28;20069;-78
2022/05/26 01:44:56;;;;;;;7.57;4.30;;;;;;;19.64;85.15;93386.28;4988974;28;20043;-79
2022/05/26 01:47:39;;;;;;;6.88;4.72;;;;;;;19.43;86.12;93368.06;4989515;28;20042;-79
2022/05/26 01:50:16;;;;;;;8.80;4.53;;;;;;;19.59;87.94;93418.31;4990696;28;20498;-79
2022/05/26 01:52:51;;;;;;;9.65;5.18;;;;;;;19.40;90.20;93415.47;4989803;28;20077;-79
2022/05/26 01:55:22;;;;;;;11.03;6.03;;;;;;;19.27;89.29;93401.13;4988686;28;20452;-79
2022/05/26 01:57:55;;;;;;;8.93;4.95;;;;;;;19.34;88.78;93409.47;4988683;28;20801;-78
2022/05/26 02:00:22;;;;;;;10.38;5.07;;;;;;;19.29;91.17;93403.47;4988931;28;20046;-78
2022/05/26 02:02:55;;;;;;;10.75;5.13;;;;;;;19.21;92.95;93410.75;4988830;28;20046;-78
2022/05/26 02:05:25;;;;;;;7.65;4.70;;;;;;;19.15;90.92;93403.19;4989172;28;20129;-77
2022/05/26 02:07:55;;;;;;;11.68;5.20;;;;;;;19.15;90.97;93401.38;4987024;28;20055;-78
2022/05/26 02:10:26;;;;;;;11.85;5.60;;;;;;;19.07;90.88;93394.09;4989147;28;20057;-78
2022/05/26 02:13:00;;;;;;;10.90;5.40;;;;;;;18.92;93.06;93382.56;4988902;28;20132;-79
2022/05/26 02:15:33;;;;;;;17.13;6.53;;;;;;;18.97;93.22;93410.41;4989086;28;20406;-80
2022/05/26 02:18:06;;;;;;;13.85;7.00;;;;;;;18.73;94.95;93399.66;4988599;28;20042;-80
2022/05/26 02:20:37;;;;;;;16.23;7.18;;;;;;;18.67;96.20;93406.69;4988835;28;20061;-79
2022/05/26 02:23:09;;;;;;;15.13;6.72;;;;;;;18.57;95.02;93399.63;4988836;28;20042;-79
2022/05/26 02:25:36;;;;;;;12.00;6.53;;;;;;;18.49;94.68;93387.13;4988548;28;20046;-79
2022/05/26 02:28:04;;;;;;;14.13;6.63;;;;;;;18.60;93.65;93406.16;4989491;28;20055;-79
2022/05/26 02:30:33;;;;;;;14.18;6.50;;;;;;;18.61;94.35;93410.31;4988747;28;20528;-80
2022/05/26 02:33:05;;;;;;;11.90;6.28;;;;;;;18.41;95.48;93388.38;4992377;28;20078;-80
2022/05/26 02:35:35;;;;;;;10.55;6.65;;;;;;;18.48;96.50;93409.75;4988605;28;20061;-80
2022/05/26 02:38:05;;;;;;;11.00;6.20;;;;;;;18.23;98.94;93398.19;4989353;28;20049;-79
2022/05/26 02:40:32;;;;;;;16.95;7.30;;;;;;;18.11;100.00;93416.59;4987991;28;20050;-79
2022/05/26 02:43:02;;;;;;;13.68;7.18;;;;;;;17.97;97.53;93392.03;4986755;28;20061;-79
2022/05/26 02:45:38;;;;;;;11.38;6.30;;;;;;;18.15;96.43;93412.44;4987492;28;20054;-79
2022/05/26 02:48:13;;;;;;;;;;;;;;;18.24;96.00;93414.56;4982248;28;20050;-79
2022/05/26 02:50:46;;;;;;;;;;;;;;;18.18;96.43;93411.16;4994737;28;19928;-79
2022/05/26 02:53:20;;;;;;;12.25;6.38;;;;;;;18.10;96.92;93420.22;4990760;28;19968;-80
2022/05/26 02:55:58;;;;;;;10.93;5.53;;;;;;;18.05;97.62;93419.38;4992843;28;20050;-80
2022/05/26 02:58:37;;;;;;;9.93;6.00;;;;;;;18.05;97.24;93419.38;4991338;28;20149;-79
2022/05/26 03:01:12;;;;;;;8.02;5.30;;;;;;;18.01;97.16;93414.66;4996579;28;20053;-79
2022/05/26 03:03:48;;;;;;;9.35;6.10;;;;;;;17.98;96.71;93410.00;4985220;28;20043;-80
2022/05/26 03:06:16;;;;;;;;;;;;;;;18.07;96.73;93425.94;4985474;28;20393;-80
2022/05/26 03:08:44;;;;;;;11.35;6.47;;;;;;;17.99;96.92;93431.53;4996057;28;19923;-80
2022/05/26 03:11:13;;;;;;;14.27;5.93;;;;;;;17.77;97.43;93409.84;4992223;28;20038;-80
2022/05/26 03:13:40;;;;;;;9.80;5.10;;;;;;;17.40;100.00;93446.94;4994024;28;20042;-80
2022/05/26 03:16:08;;;;;;;9.77;5.70;;;;;;;17.08;100.00;93439.91;4996265;28;20046;-80
2022/05/26 03:18:35;;;;;;;11.73;5.43;;;;;;;17.03;100.00;93419.09;4994145;28;20058;-83
2022/05/26 03:21:05;;;;;;;9.63;5.82;;;;;;;17.22;100.00;93435.13;4994413;28;20489;-82
2022/05/26 03:23:32;;;;;;;13.70;6.00;;;;;;;17.33;100.00;93446.38;4993086;28;20047;-81
2022/05/26 03:26:00;;;;;;;8.95;5.80;;;;;;;17.29;100.00;93446.09;4997955;28;20053;-81
2022/05/26 03:28:30;;;;;;;15.45;5.43;;;;;;;17.32;100.00;93448.16;4993500;28;20054;-80
2022/05/26 03:30:57;;;;;;;11.90;5.95;;;;;;;17.40;100.00;93444.34;4993948;28;20046;-81
2022/05/26 03:33:24;;;;;;;11.85;6.72;;;;;;;17.38;100.00;93433.44;4993916;28;20038;-81
2022/05/26 03:41:23;;;;;;;9.30;5.53;;;;;;;17.44;100.00;93458.41;4993777;28;20295;-81
2022/05/26 03:43:54;;;;;;;8.35;5.68;;;;;;;17.48;100.00;93462.09;4995288;28;20410;-81
2022/05/26 03:46:21;;;;;;;13.88;7.32;;;;;;;17.54;100.00;93468.09;4993674;28;20042;-81
2022/05/26 03:48:48;;;;;;;9.98;6.40;;;;;;;17.61;100.00;93462.72;4994900;28;20050;-81
2022/05/26 03:51:15;;;;;;;17.38;8.23;;;;;;;17.60;100.00;93469.72;4994243;28;20092;-81
2022/05/26 03:53:43;;;;;;;13.75;6.25;;;;;;;17.68;99.62;93483.31;4993619;28;20046;-81
2022/05/26 03:56:10;;;;;;;11.13;6.22;;;;;;;17.69;100.00;93475.25;4996606;28;20523;-81
2022/05/26 03:58:37;;;;;;;9.50;6.60;;;;;;;17.70;100.00;93483.81;4993969;28;20065;-81
2022/05/26 04:01:05;;;;;;;16.02;6.68;;;;;;;17.72;100.00;93489.53;4996619;28;20433;-81
2022/05/26 04:03:32;;;;;;;15.48;7.10;;;;;;;17.72;100.00;93487.75;4992936;28;20137;-81
2022/05/26 04:05:59;;;;;;;10.80;6.95;;;;;;;17.75;100.00;93497.66;4993943;28;20053;-81
2022/05/26 04:08:25;;;;;;;10.55;6.35;;;;;;;17.72;100.00;93495.53;4992965;28;20042;-82
2022/05/26 04:10:54;;;;;;;14.00;6.50;;;;;;;17.73;100.00;93485.94;4983648;28;20069;-81
2022/05/26 04:13:21;;;;;;;10.13;5.47;;;;;;;17.85;98.82;93496.16;4993642;28;20049;-81
2022/05/26 04:15:47;;;;;;;11.32;6.30;;;;;;;17.85;99.12;93491.75;4994793;28;20050;-81
2022/05/26 04:18:14;;;;;;;14.98;5.97;;;;;;;17.82;98.72;93479.25;4991283;28;20049;-81
2022/05/26 04:20:41;;;;;;;11.82;6.35;;;;;;;17.93;99.70;93511.31;4994285;28;20053;-82
2022/05/26 04:23:08;;;;;;;11.15;6.20;;;;;;;17.86;98.81;93492.53;4994864;28;20073;-82
2022/05/26 04:25:35;;;;;;;14.65;6.07;;;;;;;18.05;98.31;93508.53;4990795;28;20047;-82
2022/05/26 04:28:03;;;;;;;10.23;5.60;;;;;;;18.08;97.85;93502.88;4994766;28;20049;-81
2022/05/26 04:30:30;;;;;;;15.02;6.43;;;;;;;18.02;96.97;93483.81;4990263;28;20051;-81
2022/05/26 04:32:57;;;;;;;11.75;5.93;;;;;;;18.22;98.80;93503.22;4992479;28;20548;-81
2022/05/26 04:35:24;;;;;;;10.20;5.88;;;;;;;18.28;96.51;93499.63;4990891;28;20042;-81
2022/05/26 04:37:51;;;;;;;13.48;6.20;;;;;;;18.36;96.69;93495.78;4991961;28;20494;-81
2022/05/26 04:40:18;;;;;;;12.15;5.90;;;;;;;18.45;96.33;93500.47;4990343;28;20050;-82
2022/05/26 04:42:45;;;;;;;13.48;6.28;;;;;;;18.45;96.15;93492.69;4988926;28;20062;-82
2022/05/26 04:45:15;;;;;;;11.07;5.65;;;;;;;18.56;95.07;93489.91;4990529;28;20048;-82
2022/05/26 04:47:42;;;;;;;10.40;5.93;;;;;;;18.62;93.83;93484.72;4990155;28;20132;-81
2022/05/26 04:50:10;;;;;;;15.23;6.10;;;;;;;18.76;93.36;93501.44;4990586;28;20057;-81
2022/05/26 04:52:37;;;;;;;12.05;6.18;;;;;;;18.83;92.80;93501.19;4988949;28;20051;-81
2022/05/26 04:55:06;;;;;;;11.68;6.00;;;;;;;18.90;92.14;93493.16;4992250;28;20052;-81
2022/05/26 04:57:33;;;;;;;10.55;5.78;;;;;;;19.00;91.28;93490.59;4988395;28;20125;-81
2022/05/26 04:59:59;;;;;;;16.63;6.72;;;;;;;19.11;91.48;93504.47;4989398;28;20116;-81
2022/05/26 05:02:28;;;;;;;9.98;5.90;;;;;;;19.17;91.31;93507.88;4988843;28;20498;-81
2022/05/26 05:04:55;;;;;;;11.15;5.75;;;;;;;19.26;91.05;93506.34;4986978;28;20430;-80
2022/05/26 05:07:22;;;;;;;8.70;5.47;;;;;;;19.21;89.71;93482.91;4985721;28;20484;-81
2022/05/26 05:09:49;;;;;;;13.15;5.65;;;;;;;19.42;90.12;93507.16;4987259;28;20050;-81
2022/05/26 05:12:19;;;;;;;11.52;5.60;;;;;;;19.41;90.92;93491.78;4978078;28;20402;-81
2022/05/26 05:14:48;;;;;;;13.32;5.95;;;;;;;19.62;90.44;93521.25;4978737;28;20051;-80
2022/05/26 05:17:17;;;;;;;10.50;5.22;;;;;;;19.76;87.08;93519.72;4979419;28;20057;-80
2022/05/26 05:19:47;;;;;;;8.13;5.32;;;;;;;19.88;87.35;93509.03;4978411;28;20132;-81
2022/05/26 05:22:20;;;;;;;10.55;5.18;;;;;;;20.02;86.01;93511.94;4983060;28;20133;-81
2022/05/26 05:24:50;;;;;;;11.25;5.00;;;;;;;20.11;84.82;93501.78;4992421;28;20069;-81
2022/05/26 05:27:20;;;;;;;8.63;5.00;;;;;;;20.30;84.68;93514.25;4992707;28;20429;-80
2022/05/26 05:29:49;;;;;;;11.75;4.72;;;;;;;20.43;83.80;93503.28;4992777;28;20070;-80
2022/05/26 05:32:18;;;;;;;5.82;4.28;;;;;;;20.47;84.28;93497.53;4996015;28;20046;-80
2022/05/26 05:34:51;;;;;;;6.95;4.68;;;;;;;20.43;86.53;93500.66;4991548;28;20074;-80
2022/05/26 05:37:17;;;;;;;9.40;4.88;;;;;;;20.48;88.27;93512.94;4989304;28;20481;-81
2022/05/26 05:39:44;;;;;;;8.27;4.72;;;;;;;20.58;85.42;93529.59;4989490;28;20051;-80
2022/05/26 05:42:12;;;;;;;7.95;5.15;;;;;;;20.60;86.72;93524.91;4989192;28;20058;-80
2022/05/26 05:44:39;;;;;;;10.88;5.70;;;;;;;20.60;88.21;93522.31;4989194;28;20044;-81
2022/05/26 05:47:06;;;;;;;9.35;4.90;;;;;;;20.83;85.96;93536.63;4989227;28;20047;-81
2022/05/26 05:49:35;;;;;;;13.20;5.43;;;;;;;20.73;85.33;93534.03;4988970;28;20043;-81
2022/05/26 05:52:12;;;;;;;12.10;5.38;;;;;;;21.05;85.08;93538.13;4988956;28;20105;-80
2022/05/26 05:54:39;;;;;;;8.45;4.25;;;;;;;20.95;80.40;93528.50;4989627;28;20058;-81
2022/05/26 05:57:07;;;;;;;10.27;4.50;;;;;;;21.04;77.92;93533.94;4990952;28;20409;-81
2022/05/26 05:59:34;;;;;;;9.75;4.63;;;;;;;21.38;77.86;93538.50;4988460;28;20050;-81
2022/05/26 06:02:01;;;;;;;9.30;4.35;;;;;;;21.56;78.40;93546.78;4988207;28;20057;-82
2022/05/26 06:04:28;;;;;;;10.27;4.55;;;;;;;21.64;78.01;93548.81;4988897;28;20054;-82
2022/05/26 06:06:55;;;;;;;13.27;5.00;;;;;;;22.08;80.17;93546.47;4988539;28;20445;-81
2022/05/26 06:09:23;;;;;;;13.80;5.05;;;;;;;22.35;78.39;93545.22;4988598;28;20524;-80
2022/05/26 06:11:50;;;;;;;8.82;3.88;;;;;;;22.81;74.90;93557.09;4988539;28;20053;-82
2022/05/26 06:14:17;;;;;;;10.38;4.45;;;;;;;23.12;69.99;93558.59;4988417;28;20412;-83
2022/05/26 06:16:46;;;;;;;12.82;4.32;;;;;;;23.37;68.22;93552.31;4988533;28;20050;-82
2022/05/26 06:19:13;;;;;;;11.00;4.10;;;;;;;23.58;63.74;93539.72;4988778;28;20054;-81
2022/05/26 06:21:41;;;;;;;11.10;5.30;;;;;;;23.98;65.12;93563.03;4988568;28;20490;-84
2022/05/26 06:24:09;;;;;;;18.50;5.18;;;;;;;24.44;62.02;93566.00;4988557;28;20094;-83
2022/05/26 06:26:37;;;;;;;15.02;6.00;;;;;;;24.59;62.92;93564.22;4988631;28;20050;-83
2022/05/26 06:37:21;;;;;;;16.77;6.60;;;;;;;25.26;59.35;93563.00;4994054;28;20092;-81
2022/05/26 06:39:48;;;;;;;16.20;6.57;;;;;;;25.79;59.03;93571.44;4992116;28;20505;-81
2022/05/26 06:42:17;;;;;;;14.00;6.65;;;;;;;26.27;53.46;93553.53;4991924;28;20453;-83
2022/05/26 06:44:46;;;;;;;18.73;6.68;;;;;;;26.54;52.20;93571.06;4992020;28;20390;-82
2022/05/26 06:47:15;;;;;;;11.52;5.47;;;;;;;26.63;51.61;93576.38;4992309;28;20050;-82
2022/05/26 06:49:42;;;;;;;14.55;5.53;;;;;;;26.46;50.94;93573.59;4991988;28;20057;-82
2022/05/26 06:52:11;;;;;;;12.50;5.65;;;;;;;26.78;50.13;93577.81;4991829;28;20042;-82
2022/05/26 06:54:41;;;;;;;17.65;5.65;;;;;;;26.36;48.71;93582.53;4991722;28;20493;-82
2022/05/26 06:57:09;;;;;;;13.30;5.40;;;;;;;26.46;48.72;93581.50;4991971;28;20046;-82
2022/05/26 06:59:37;;;;;;;17.27;4.88;;;;;;;26.78;48.22;93582.31;4991723;28;20057;-81
2022/05/26 07:02:05;;;;;;;12.75;5.40;;;;;;;25.87;43.57;93569.94;4991958;28;20051;-81
2022/05/26 07:04:33;;;;;;;15.57;5.28;;;;;;;25.91;46.32;93591.94;4991999;28;20050;-82
2022/05/26 07:07:01;;;;;;;9.70;3.75;;;;;;;26.40;40.60;93592.19;4991923;28;20042;-82
2022/05/26 07:09:29;;;;;;;12.18;3.72;;;;;;;26.62;41.09;93589.84;4991670;28;20085;-82
2022/05/26 07:11:55;;;;;;;8.13;3.50;;;;;;;26.77;38.34;93594.72;4991662;28;20058;-82
2022/05/26 07:14:22;;;;;;;10.07;3.83;;;;;;;26.97;38.97;93600.56;4991410;28;20090;-82
2022/05/26 07:16:50;;;;;;;11.55;3.72;;;;;;;27.01;38.72;93595.47;4991810;28;20042;-83
2022/05/26 07:19:19;;;;;;;8.82;2.90;;;;;;;27.20;38.41;93596.00;4991424;28;20796;-83
2022/05/26 07:21:48;;;;;;;12.57;4.15;;;;;;;27.31;38.45;93598.38;4991539;28;20089;-84
2022/05/26 07:24:17;;;;;;;14.75;3.75;;;;;;;27.17;36.95;93603.75;4991518;28;20074;-82
2022/05/26 07:26:45;;;;;;;12.80;4.13;;;;;;;27.39;39.32;93594.97;4991524;28;20125;-81
2022/05/26 07:29:11;;;;;;;7.95;2.30;;;;;;;25.96;37.00;93602.38;4987810;28;20054;-83
2022/05/26 07:31:39;;;;;;;7.35;2.67;;;;;;;26.22;37.91;93601.00;4989481;28;20457;-84
2022/05/26 07:34:07;;;;;;;3.83;1.70;;;;;;;26.54;35.62;93597.41;4990856;28;20097;-84
2022/05/26 07:42:06;;;;;;;5.90;1.80;;;;;;;27.60;34.81;93607.63;4991934;28;20138;-84
2022/05/26 07:44:37;;;;;;;6.22;2.20;;;;;;;27.82;34.94;93600.66;4990525;28;20055;-84
2022/05/26 07:47:04;;;;;;;6.85;2.58;;;;;;;27.98;35.44;93591.22;4991341;28;20441;-86
2022/05/26 07:49:33;;;;;;;4.03;1.60;;;;;;;27.90;36.12;93607.03;4992901;28;20050;-85
2022/05/26 07:52:01;;;;;;;6.55;2.20;;;;;;;27.65;36.29;93615.41;4991404;28;20061;-85
2022/05/26 07:54:28;;;;;;;7.15;1.77;;;;;;;27.35;36.22;93586.91;4991160;28;20054;-85
2022/05/26 07:56:56;;;;;;;7.97;2.42;;;;;;;26.22;36.01;93593.09;4991043;28;20413;-82
2022/05/26 07:59:23;;;;;;;7.88;2.05;;;;;;;26.89;36.79;93596.00;4990776;28;20092;-84
2022/05/26 08:01:56;;;;;;;8.45;2.63;;;;;;;27.54;37.43;93614.09;4991344;28;20391;-84
2022/05/26 08:04:22;;;;;;;9.23;2.42;;;;;;;28.15;36.62;93613.41;4991836;28;20060;-82
2022/05/26 08:06:51;;;;;;;6.93;2.33;;;;;;;28.43;35.14;93602.56;4991065;28;20050;-84
2022/05/26 08:09:28;;;;;;;9.15;2.65;;;;;;;28.48;35.87;93512.56;4990634;28;20046;-84
2022/05/26 08:12:33;;;;;;;7.43;2.10;;;;;;;28.82;35.09;93555.03;4991178;28;20050;-85
2022/05/26 08:15:00;;;;;;;6.20;2.67;;;;;;;29.76;34.94;93591.50;4977436;28;20054;-85
2022/05/26 08:17:27;;;;;;;9.60;2.83;;;;;;;29.71;35.34;93601.16;4990455;28;20049;-83
2022/05/26 08:19:53;;;;;;;5.53;2.20;;;;;;;29.02;34.26;93609.09;4990671;28;20405;-82
2022/05/26 08:22:22;;;;;;;6.78;3.03;;;;;;;28.87;36.05;93607.00;4991297;28;20053;-82
2022/05/26 08:24:53;;;;;;;5.13;2.25;;;;;;;27.20;38.56;93547.75;4990246;28;20042;-85
2022/05/26 08:27:20;;;;;;;13.00;2.10;;;;;;;26.85;39.94;93609.03;4991749;28;20097;-83
2022/05/26 08:29:47;;;;;;;11.15;2.90;;;;;;;26.89;40.67;93594.13;4990203;28;20039;-82
2022/05/26 08:32:15;;;;;;;12.40;3.35;;;;;;;26.34;41.30;93603.13;4991644;28;20042;-81
2022/05/26 08:34:42;;;;;;;7.72;3.15;;;;;;;26.72;41.12;93618.56;4990408;28;20401;-81
2022/05/26 08:37:13;;;;;;;5.32;2.33;;;;;;;25.93;41.58;93618.75;4989344;28;20043;-81
2022/05/26 08:39:42;;;;;;;12.85;3.10;;;;;;;26.54;42.56;93617.69;4992711;28;20078;-81
2022/05/26 08:42:19;;;;;;;6.82;3.08;;;;;;;26.62;42.59;93624.84;4992984;28;20058;-85
2022/05/26 08:44:47;;;;;;;12.93;3.55;;;;;;;27.15;40.42;93604.06;4990949;28;20494;-86
2022/05/26 08:47:16;;;;;;;7.80;2.47;;;;;;;27.52;40.02;93616.25;4989992;28;20183;-82
2022/05/26 08:49:50;;;;;;;8.07;2.97;;;;;;;26.36;43.80;93628.09;4989377;28;20049;-83
2022/05/26 08:52:22;;;;;;;9.63;2.63;;;;;;;26.98;43.51;93609.25;4990811;28;20454;-87
2022/05/26 08:54:56;;;;;;;6.70;2.47;;;;;;;27.02;42.20;93612.84;4988307;28;20053;-83
2022/05/26 08:57:27;;;;;;;6.70;2.30;;;;;;;26.94;41.82;93630.19;4989163;28;20054;-83
2022/05/26 08:59:54;;;;;;;7.00;2.53;;;;;;;26.73;40.69;93603.50;4986846;28;20051;-80
2022/05/26 09:02:27;;;;;;;7.50;3.50;;;;;;;26.26;41.62;93631.75;4982430;28;20154;-81
2022/05/26 09:04:57;;;;;;;4.70;2.75;;;;;;;26.61;41.39;93620.66;4983769;28;20046;-82
2022/05/26 09:13:07;;;;;;;6.45;2.58;;;;;;;27.21;39.55;93637.13;4993003;28;20049;-83
2022/05/26 09:15:36;;;;;;;5.63;2.20;;;;;;;28.03;38.24;93632.50;4995741;28;20054;-82
2022/05/26 09:18:12;;;;;;;5.25;2.53;;;;;;;27.97;38.62;93628.47;4994056;28;20445;-83
2022/05/26 09:20:41;;;;;;;5.20;2.72;;;;;;;28.45;38.81;93626.78;4996339;28;20052;-82
2022/05/26 09:23:11;;;;;;;6.60;2.40;;;;;;;28.39;37.19;93628.81;4993954;28;20049;-83
2022/05/26 09:25:45;;;;;;;8.38;2.47;;;;;;;28.02;36.95;93620.41;4993486;28;20078;-82
2022/05/26 09:28:13;;;;;;;8.20;2.53;;;;;;;28.13;37.96;93616.38;4994056;28;20067;-84
2022/05/26 09:30:40;;;;;;;7.47;3.00;;;;;;;28.91;37.50;93627.19;4989595;28;20050;-83
2022/05/26 09:33:27;;;;;;;8.43;2.67;;;;;;;28.72;37.56;93614.31;4988749;28;20053;-83
2022/05/26 09:35:54;;;;;;;7.53;2.50;;;;;;;29.42;38.13;93628.38;4986913;28;20046;-82
2022/05/26 09:38:21;;;;;;;6.25;2.50;;;;;;;29.43;36.51;93616.72;4990404;28;20049;-81
2022/05/26 09:40:49;;;;;;;6.07;2.33;;;;;;;28.59;37.31;93623.97;4988806;28;20050;-83
2022/05/26 09:43:25;;;;;;;7.78;2.35;;;;;;;27.76;38.23;93633.59;4988911;28;20110;-82
2022/05/26 09:45:54;;;;;;;6.30;2.42;;;;;;;28.35;38.23;93629.75;4990675;28;20050;-81
2022/05/26 09:48:29;;;;;;;7.05;2.67;;;;;;;28.83;38.89;93617.38;4988810;28;20054;-81
2022/05/26 09:51:09;;;;;;;6.63;2.55;;;;;;;29.70;37.07;93617.38;4990989;28;20082;-83
2022/05/26 09:53:39;;;;;;;4.72;2.97;;;;;;;29.74;35.16;93603.19;4988948;28;20100;-82
2022/05/26 09:56:09;;;;;;;5.85;2.60;;;;;;;30.16;35.66;93598.25;4987373;28;20129;-83
2022/05/26 09:58:39;;;;;;;5.10;2.35;;;;;;;29.86;35.45;93610.41;4990857;28;20093;-82
2022/05/26 10:01:13;;;;;;;6.82;2.72;;;;;;;29.33;36.01;93581.59;4990893;28;20046;-83
2022/05/26 10:03:53;;;;;;;7.93;3.33;;;;;;;28.97;36.07;93614.56;4988087;28;20129;-82
2022/05/26 10:06:26;;;;;;;6.63;2.63;;;;;;;28.18;37.28;93612.78;4988392;28;20593;-82
2022/05/26 10:09:06;;;;;;;5.32;2.47;;;;;;;28.50;37.95;93605.47;4990471;28;20505;-82
2022/05/26 10:11:57;;;;;;;5.90;2.70;;;;;;;28.12;37.04;93616.66;4990663;28;20053;-82
2022/05/26 10:14:43;;;;;;;6.15;2.30;;;;;;;27.65;38.19;93596.91;4987827;28;20057;-82
2022/05/26 10:17:21;;;;;;;6.55;2.83;;;;;;;28.33;38.34;93611.56;4989533;28;20050;-82
2022/05/26 10:20:08;;;;;;;10.63;2.95;;;;;;;29.21;37.54;93608.72;4988859;28;20050;-82
2022/05/26 10:22:47;;;;;;;8.07;2.78;;;;;;;30.17;37.19;93587.31;4990164;28;20061;-83
2022/05/26 10:25:27;;;;;;;7.60;2.42;;;;;;;30.47;35.98;93600.44;4989263;28;20413;-82
2022/05/26 10:28:22;;;;;;;7.85;3.00;;;;;;;30.39;35.47;93606.59;4989261;28;20476;-81
2022/05/26 10:30:52;;;;;;;;;;;;;;;30.22;36.76;93604.88;4990744;28;20498;-81
2022/05/26 10:33:34;;;;;;;5.43;2.35;;;;;;;29.43;37.74;93603.50;4988391;28;19929;-82
2022/05/26 10:36:14;;;;;;;5.65;3.00;;;;;;;29.97;36.72;93607.38;4990130;28;20046;-83
2022/05/26 10:39:06;;;;;;;7.03;3.55;;;;;;;29.02;36.54;93606.47;4988831;28;20101;-84
2022/05/26 10:41:37;;;;;;;7.57;3.40;;;;;;;28.34;40.13;93555.00;4978914;28;20497;-84
2022/05/26 10:44:14;;;;;;;5.53;2.65;;;;;;;29.39;39.25;93599.94;4987917;28;20042;-84
2022/05/26 10:46:47;;;;;;;7.88;3.22;;;;;;;29.97;37.07;93591.47;4988722;28;20090;-82
2022/05/26 10:49:19;;;;;;;9.18;2.60;;;;;;;29.69;36.89;93586.69;4990180;28;20046;-84
2022/05/26 10:51:53;;;;;;;5.90;2.63;;;;;;;29.73;35.88;93564.56;4990064;28;20498;-81
2022/05/26 10:54:32;;;;;;;8.32;2.65;;;;;;;30.39;36.57;93580.88;4985952;28;20058;-81
2022/05/26 10:57:06;;;;;;;5.72;2.80;;;;;;;30.43;36.76;93580.22;4990395;28;20618;-82
2022/05/26 10:59:39;;;;;;;5.80;3.05;;;;;;;30.04;37.57;93561.84;4987013;28;20059;-82
2022/05/26 11:02:15;;;;;;;6.40;2.95;;;;;;;30.36;37.04;93575.47;4984798;28;20060;-82
2022/05/26 11:04:49;;;;;;;8.52;2.88;;;;;;;29.63;38.59;93566.81;4989317;28;20042;-83
2022/05/26 11:07:22;;;;;;;6.18;2.75;;;;;;;30.07;39.43;93569.91;4987567;28;20050;-83
2022/05/26 11:09:53;;;;;;;6.00;2.67;;;;;;;28.97;38.62;93566.97;4989908;28;20099;-84
2022/05/26 11:12:29;;;;;;;6.72;2.78;;;;;;;29.01;39.04;93573.19;4988165;28;20498;-81
2022/05/26 11:17:57;;;;;;;5.45;3.25;;;;;;;28.04;42.61;93570.69;4989089;28;20129;-81
2022/05/26 11:20:27;;;;;;;7.32;3.70;;;;;;;27.48;45.57;93579.94;4995145;28;21680;-82
2022/05/26 11:23:02;;;;;;;6.95;3.60;;;;;;;27.61;44.78;93580.16;4993934;28;20456;-81
2022/05/26 11:25:42;;;;;;;9.85;3.45;;;;;;;27.42;44.75;93552.16;4988683;28;20068;-81
2022/05/26 11:28:13;;;;;;;6.30;3.13;;;;;;;27.76;44.37;93557.03;4991734;28;20046;-82
2022/05/26 11:36:35;;;;;;;6.90;3.13;;;;;;;29.62;41.71;93552.03;4990434;28;20089;-82
2022/05/26 11:39:07;;;;;;;9.23;3.65;;;;;;;30.26;39.77;93550.13;4992764;28;20763;-82
2022/05/26 11:41:37;;;;;;;5.93;3.67;;;;;;;29.69;40.14;93544.34;4991529;28;21096;-82
2022/05/26 11:44:06;;;;;;;6.22;3.17;;;;;;;29.87;40.51;93550.28;4992754;28;20046;-82
2022/05/26 11:46:56;;;;;;;4.90;2.50;;;;;;;30.37;38.51;93545.22;4991721;28;20061;-83
2022/05/26 11:49:56;;;;;;;9.10;3.47;;;;;;;30.67;39.06;93542.38;4991923;28;20043;-82
2022/05/26 11:52:27;;;;;;;8.63;3.75;;;;;;;29.87;40.69;93507.91;4955884;28;20042;-83
2022/05/26 11:55:16;;;;;;;9.32;3.25;;;;;;;29.78;39.75;93549.56;4991147;28;20048;-82
2022/05/26 11:57:53;;;;;;;6.88;3.03;;;;;;;30.09;39.61;93540.44;4990940;28;20498;-81
2022/05/26 12:00:24;;;;;;;4.00;2.75;;;;;;;30.60;39.15;93532.34;4991563;28;20042;-82
2022/05/26 12:03:29;;;;;;;7.05;3.05;;;;;;;29.95;40.25;93549.44;4990524;28;20050;-83
2022/05/26 12:06:10;;;;;;;4.47;3.00;;;;;;;30.29;40.69;93546.06;4990492;28;20046;-82
2022/05/26 12:08:47;;;;;;;7.82;2.95;;;;;;;29.23;41.47;93544.91;4992415;28;20050;-82
2022/05/26 12:11:16;;;;;;;6.28;2.70;;;;;;;28.38;42.72;93536.66;4992545;28;20051;-85
2022/05/26 12:13:43;;;;;;;6.53;3.50;;;;;;;27.77;45.67;93538.22;4990868;28;20065;-82
2022/05/26 12:16:28;;;;;;;6.10;3.80;;;;;;;27.96;47.12;93545.84;4990886;28;20049;-82
2022/05/26 12:19:00;;;;;;;5.85;3.08;;;;;;;27.96;47.24;93545.84;4991176;28;20513;-84
2022/05/26 12:21:46;;;;;;;7.20;3.33;;;;;;;27.59;46.66;93537.47;4990328;28;20135;-82
2022/05/26 12:24:59;;;;;;;5.07;2.70;;;;;;;27.24;48.21;93543.44;4991452;28;20483;-81
2022/05/26 12:28:08;;;;;;;7.13;3.13;;;;;;;28.04;46.90;93544.28;4988849;28;20085;-80